sensor_id;sensor_type;location;lat;lon;timestamp;P1;durP1;ratioP1;P2;durP2;ratioP2
16577;SDS011;8401;52.528;13.340;2023-08-24T00:00:42;6.68;;;4.88;;
16577;SDS011;8401;52.528;13.340;2023-08-24T00:03:08;5.88;;;4.57;;
16577;SDS011;8401;52.528;13.340;2023-08-24T00:05:36;6.43;;;3.90;;
16577;SDS011;8401;52.528;13.340;2023-08-24T00:08:05;7.90;;;4.78;;
16577;SDS011;8401;52.528;13.340;2023-08-24T00:10:33;6.90;;;4.30;;
16577;SDS011;8401;52.528;13.340;2023-08-24T00:12:59;8.30;;;4.47;;
16577;SDS011;8401;52.528;13.340;2023-08-24T00:15:25;6.47;;;4.53;;
16577;SDS011;8401;52.528;13.340;2023-08-24T00:17:51;8.15;;;4.40;;
16577;SDS011;8401;52.528;13.340;2023-08-24T00:20:16;7.13;;;3.92;;
16577;SDS011;8401;52.528;13.340;2023-08-24T00:22:42;7.45;;;4.45;;
16577;SDS011;8401;52.528;13.340;2023-08-24T00:25:08;5.40;;;4.07;;
16577;SDS011;8401;52.528;13.340;2023-08-24T00:27:34;6.15;;;4.00;;
16577;SDS011;8401;52.528;13.340;2023-08-24T00:30:04;7.25;;;4.47;;
16577;SDS011;8401;52.528;13.340;2023-08-24T00:32:34;5.00;;;4.30;;
16577;SDS011;8401;52.528;13.340;2023-08-24T00:35:01;6.10;;;4.45;;
16577;SDS011;8401;52.528;13.340;2023-08-24T00:37:28;4.40;;;3.90;;
16577;SDS011;8401;52.528;13.340;2023-08-24T00:39:53;5.63;;;3.90;;
16577;SDS011;8401;52.528;13.340;2023-08-24T00:42:20;6.55;;;4.63;;
16577;SDS011;8401;52.528;13.340;2023-08-24T00:44:47;5.15;;;4.03;;
16577;SDS011;8401;52.528;13.340;2023-08-24T00:47:13;6.25;;;4.28;;
16577;SDS011;8401;52.528;13.340;2023-08-24T00:49:40;4.90;;;3.95;;
16577;SDS011;8401;52.528;13.340;2023-08-24T00:52:06;5.72;;;4.28;;
16577;SDS011;8401;52.528;13.340;2023-08-24T00:54:32;6.65;;;4.38;;
16577;SDS011;8401;52.528;13.340;2023-08-24T00:56:58;7.53;;;3.83;;
16577;SDS011;8401;52.528;13.340;2023-08-24T00:59:24;5.95;;;4.00;;
16577;SDS011;8401;52.528;13.340;2023-08-24T01:01:49;10.75;;;4.40;;
16577;SDS011;8401;52.528;13.340;2023-08-24T01:04:17;5.85;;;4.18;;
16577;SDS011;8401;52.528;13.340;2023-08-24T01:06:43;5.95;;;4.25;;
16577;SDS011;8401;52.528;13.340;2023-08-24T01:09:08;6.38;;;4.75;;
16577;SDS011;8401;52.528;13.340;2023-08-24T01:17:22;5.15;;;4.20;;
16577;SDS011;8401;52.528;13.340;2023-08-24T01:19:54;5.32;;;4.20;;
16577;SDS011;8401;52.528;13.340;2023-08-24T01:27:46;7.57;;;5.00;;
16577;SDS011;8401;52.528;13.340;2023-08-24T01:30:14;5.82;;;4.30;;
16577;SDS011;8401;52.528;13.340;2023-08-24T01:32:40;6.22;;;4.65;;
16577;SDS011;8401;52.528;13.340;2023-08-24T01:35:08;5.88;;;4.20;;
16577;SDS011;8401;52.528;13.340;2023-08-24T01:37:34;5.55;;;4.43;;
16577;SDS011;8401;52.528;13.340;2023-08-24T01:43:02;6.22;;;4.50;;
16577;SDS011;8401;52.528;13.340;2023-08-24T01:45:31;6.60;;;4.22;;
16577;SDS011;8401;52.528;13.340;2023-08-24T01:47:59;7.65;;;4.30;;
16577;SDS011;8401;52.528;13.340;2023-08-24T01:50:28;7.18;;;4.03;;
16577;SDS011;8401;52.528;13.340;2023-08-24T01:52:55;5.80;;;3.63;;
16577;SDS011;8401;52.528;13.340;2023-08-24T01:55:21;4.68;;;3.78;;
16577;SDS011;8401;52.528;13.340;2023-08-24T01:57:47;5.78;;;3.92;;
16577;SDS011;8401;52.528;13.340;2023-08-24T02:00:13;5.13;;;3.92;;
16577;SDS011;8401;52.528;13.340;2023-08-24T02:02:41;5.47;;;3.83;;
16577;SDS011;8401;52.528;13.340;2023-08-24T02:05:07;4.65;;;3.67;;
16577;SDS011;8401;52.528;13.340;2023-08-24T02:07:33;7.05;;;3.67;;
16577;SDS011;8401;52.528;13.340;2023-08-24T02:10:00;3.92;;;3.30;;
16577;SDS011;8401;52.528;13.340;2023-08-24T02:12:25;4.30;;;3.38;;
16577;SDS011;8401;52.528;13.340;2023-08-24T02:14:51;5.35;;;3.55;;
16577;SDS011;8401;52.528;13.340;2023-08-24T02:17:16;6.47;;;3.65;;
16577;SDS011;8401;52.528;13.340;2023-08-24T02:19:42;3.33;;;3.03;;
16577;SDS011;8401;52.528;13.340;2023-08-24T02:22:08;6.82;;;3.80;;
16577;SDS011;8401;52.528;13.340;2023-08-24T02:24:33;3.85;;;2.85;;
16577;SDS011;8401;52.528;13.340;2023-08-24T02:26:59;5.15;;;3.38;;
16577;SDS011;8401;52.528;13.340;2023-08-24T02:29:25;4.00;;;3.20;;
16577;SDS011;8401;52.528;13.340;2023-08-24T02:31:52;4.47;;;3.05;;
16577;SDS011;8401;52.528;13.340;2023-08-24T02:34:18;6.72;;;3.38;;
16577;SDS011;8401;52.528;13.340;2023-08-24T02:36:44;5.00;;;3.45;;
16577;SDS011;8401;52.528;13.340;2023-08-24T02:39:09;3.10;;;2.80;;
16577;SDS011;8401;52.528;13.340;2023-08-24T02:41:35;3.45;;;3.10;;
16577;SDS011;8401;52.528;13.340;2023-08-24T02:44:04;4.90;;;3.03;;
16577;SDS011;8401;52.528;13.340;2023-08-24T02:46:29;5.10;;;3.00;;
16577;SDS011;8401;52.528;13.340;2023-08-24T02:48:55;5.70;;;3.00;;
16577;SDS011;8401;52.528;13.340;2023-08-24T02:51:21;5.10;;;2.83;;
16577;SDS011;8401;52.528;13.340;2023-08-24T02:53:47;3.05;;;2.65;;
16577;SDS011;8401;52.528;13.340;2023-08-24T02:56:13;3.38;;;2.78;;
16577;SDS011;8401;52.528;13.340;2023-08-24T02:58:39;4.05;;;2.97;;
16577;SDS011;8401;52.528;13.340;2023-08-24T03:01:06;3.55;;;2.90;;
16577;SDS011;8401;52.528;13.340;2023-08-24T03:03:35;3.85;;;2.83;;
16577;SDS011;8401;52.528;13.340;2023-08-24T03:06:02;3.70;;;2.80;;
16577;SDS011;8401;52.528;13.340;2023-08-24T03:08:29;4.32;;;3.00;;
16577;SDS011;8401;52.528;13.340;2023-08-24T03:10:56;4.38;;;3.33;;
16577;SDS011;8401;52.528;13.340;2023-08-24T03:13:22;4.13;;;3.08;;
16577;SDS011;8401;52.528;13.340;2023-08-24T03:15:47;3.63;;;3.15;;
16577;SDS011;8401;52.528;13.340;2023-08-24T03:18:13;6.07;;;3.33;;
16577;SDS011;8401;52.528;13.340;2023-08-24T03:20:40;4.85;;;3.70;;
16577;SDS011;8401;52.528;13.340;2023-08-24T03:23:06;4.85;;;3.30;;
16577;SDS011;8401;52.528;13.340;2023-08-24T03:25:36;4.05;;;3.65;;
16577;SDS011;8401;52.528;13.340;2023-08-24T03:28:03;5.35;;;3.72;;
16577;SDS011;8401;52.528;13.340;2023-08-24T03:30:29;4.25;;;3.40;;
16577;SDS011;8401;52.528;13.340;2023-08-24T03:32:55;3.83;;;3.42;;
16577;SDS011;8401;52.528;13.340;2023-08-24T03:35:20;5.38;;;3.13;;
16577;SDS011;8401;52.528;13.340;2023-08-24T03:37:46;3.80;;;3.20;;
16577;SDS011;8401;52.528;13.340;2023-08-24T03:40:12;3.60;;;3.10;;
16577;SDS011;8401;52.528;13.340;2023-08-24T03:42:38;6.50;;;2.88;;
16577;SDS011;8401;52.528;13.340;2023-08-24T03:45:04;3.40;;;3.03;;
16577;SDS011;8401;52.528;13.340;2023-08-24T03:47:30;2.97;;;2.42;;
16577;SDS011;8401;52.528;13.340;2023-08-24T03:49:56;4.22;;;3.05;;
16577;SDS011;8401;52.528;13.340;2023-08-24T03:52:21;3.92;;;2.95;;
16577;SDS011;8401;52.528;13.340;2023-08-24T03:54:47;3.13;;;2.60;;
16577;SDS011;8401;52.528;13.340;2023-08-24T03:57:13;3.33;;;2.85;;
16577;SDS011;8401;52.528;13.340;2023-08-24T03:59:39;3.67;;;3.03;;
16577;SDS011;8401;52.528;13.340;2023-08-24T04:02:04;6.05;;;3.28;;
16577;SDS011;8401;52.528;13.340;2023-08-24T04:04:31;3.45;;;2.60;;
16577;SDS011;8401;52.528;13.340;2023-08-24T04:06:56;3.47;;;3.17;;
16577;SDS011;8401;52.528;13.340;2023-08-24T04:09:22;4.55;;;3.25;;
16577;SDS011;8401;52.528;13.340;2023-08-24T04:11:48;2.97;;;2.70;;
16577;SDS011;8401;52.528;13.340;2023-08-24T04:14:13;3.35;;;2.65;;
16577;SDS011;8401;52.528;13.340;2023-08-24T04:16:39;4.35;;;2.65;;
16577;SDS011;8401;52.528;13.340;2023-08-24T04:19:05;3.78;;;2.35;;
16577;SDS011;8401;52.528;13.340;2023-08-24T04:21:30;3.85;;;2.65;;
16577;SDS011;8401;52.528;13.340;2023-08-24T04:23:56;4.57;;;2.70;;
16577;SDS011;8401;52.528;13.340;2023-08-24T04:26:21;2.53;;;2.33;;
16577;SDS011;8401;52.528;13.340;2023-08-24T04:28:47;3.78;;;2.47;;
16577;SDS011;8401;52.528;13.340;2023-08-24T04:31:13;3.58;;;2.60;;
16577;SDS011;8401;52.528;13.340;2023-08-24T04:33:38;2.42;;;2.10;;
16577;SDS011;8401;52.528;13.340;2023-08-24T04:36:04;2.72;;;2.45;;
16577;SDS011;8401;52.528;13.340;2023-08-24T04:38:30;3.95;;;2.63;;
16577;SDS011;8401;52.528;13.340;2023-08-24T04:40:56;4.45;;;2.88;;
16577;SDS011;8401;52.528;13.340;2023-08-24T04:43:22;3.10;;;2.63;;
16577;SDS011;8401;52.528;13.340;2023-08-24T04:45:49;3.42;;;2.50;;
16577;SDS011;8401;52.528;13.340;2023-08-24T04:48:17;5.70;;;4.10;;
16577;SDS011;8401;52.528;13.340;2023-08-24T04:50:47;5.55;;;3.15;;
16577;SDS011;8401;52.528;13.340;2023-08-24T04:53:14;6.95;;;2.88;;
16577;SDS011;8401;52.528;13.340;2023-08-24T04:55:43;5.13;;;3.30;;
16577;SDS011;8401;52.528;13.340;2023-08-24T04:58:09;3.83;;;3.00;;
16577;SDS011;8401;52.528;13.340;2023-08-24T05:00:36;3.40;;;3.10;;
16577;SDS011;8401;52.528;13.340;2023-08-24T05:03:02;3.40;;;2.83;;
16577;SDS011;8401;52.528;13.340;2023-08-24T05:05:32;4.07;;;2.97;;
16577;SDS011;8401;52.528;13.340;2023-08-24T05:07:58;3.13;;;2.83;;
16577;SDS011;8401;52.528;13.340;2023-08-24T05:10:25;5.38;;;3.30;;
16577;SDS011;8401;52.528;13.340;2023-08-24T05:12:54;3.78;;;2.80;;
16577;SDS011;8401;52.528;13.340;2023-08-24T05:15:21;3.30;;;3.00;;
16577;SDS011;8401;52.528;13.340;2023-08-24T05:17:46;5.60;;;3.25;;
16577;SDS011;8401;52.528;13.340;2023-08-24T05:20:12;3.90;;;2.90;;
16577;SDS011;8401;52.528;13.340;2023-08-24T05:22:38;4.18;;;2.80;;
16577;SDS011;8401;52.528;13.340;2023-08-24T05:25:04;3.85;;;3.20;;
16577;SDS011;8401;52.528;13.340;2023-08-24T05:27:30;5.72;;;3.05;;
16577;SDS011;8401;52.528;13.340;2023-08-24T05:29:56;4.95;;;2.72;;
16577;SDS011;8401;52.528;13.340;2023-08-24T05:32:22;4.85;;;3.10;;
16577;SDS011;8401;52.528;13.340;2023-08-24T05:34:48;4.50;;;3.30;;
16577;SDS011;8401;52.528;13.340;2023-08-24T05:37:14;4.30;;;2.85;;
16577;SDS011;8401;52.528;13.340;2023-08-24T05:39:39;5.95;;;2.85;;
16577;SDS011;8401;52.528;13.340;2023-08-24T05:42:05;3.67;;;3.30;;
16577;SDS011;8401;52.528;13.340;2023-08-24T05:44:36;6.60;;;3.50;;
16577;SDS011;8401;52.528;13.340;2023-08-24T05:47:01;6.28;;;3.17;;
16577;SDS011;8401;52.528;13.340;2023-08-24T05:49:27;6.10;;;3.00;;
16577;SDS011;8401;52.528;13.340;2023-08-24T05:51:53;4.63;;;3.67;;
16577;SDS011;8401;52.528;13.340;2023-08-24T05:54:19;5.60;;;3.47;;
16577;SDS011;8401;52.528;13.340;2023-08-24T05:56:45;4.35;;;2.92;;
16577;SDS011;8401;52.528;13.340;2023-08-24T05:59:11;4.68;;;2.95;;
16577;SDS011;8401;52.528;13.340;2023-08-24T06:01:36;5.68;;;3.13;;
16577;SDS011;8401;52.528;13.340;2023-08-24T06:04:06;5.72;;;3.47;;
16577;SDS011;8401;52.528;13.340;2023-08-24T06:06:35;4.43;;;3.10;;
16577;SDS011;8401;52.528;13.340;2023-08-24T06:09:01;5.03;;;3.30;;
16577;SDS011;8401;52.528;13.340;2023-08-24T06:11:29;3.75;;;2.65;;
16577;SDS011;8401;52.528;13.340;2023-08-24T06:13:55;3.42;;;2.83;;
16577;SDS011;8401;52.528;13.340;2023-08-24T06:16:20;3.72;;;2.58;;
16577;SDS011;8401;52.528;13.340;2023-08-24T06:18:46;3.90;;;2.90;;
16577;SDS011;8401;52.528;13.340;2023-08-24T06:21:12;4.13;;;3.05;;
16577;SDS011;8401;52.528;13.340;2023-08-24T06:23:38;4.93;;;3.03;;
16577;SDS011;8401;52.528;13.340;2023-08-24T06:26:04;4.60;;;3.10;;
16577;SDS011;8401;52.528;13.340;2023-08-24T06:28:29;3.83;;;2.60;;
16577;SDS011;8401;52.528;13.340;2023-08-24T06:30:55;5.10;;;2.63;;
16577;SDS011;8401;52.528;13.340;2023-08-24T06:33:21;3.53;;;2.65;;
16577;SDS011;8401;52.528;13.340;2023-08-24T06:35:55;5.03;;;3.30;;
16577;SDS011;8401;52.528;13.340;2023-08-24T06:38:23;5.05;;;2.70;;
16577;SDS011;8401;52.528;13.340;2023-08-24T06:40:49;5.80;;;3.33;;
16577;SDS011;8401;52.528;13.340;2023-08-24T06:43:15;3.60;;;2.85;;
16577;SDS011;8401;52.528;13.340;2023-08-24T06:45:41;3.88;;;3.42;;
16577;SDS011;8401;52.528;13.340;2023-08-24T06:48:06;7.43;;;3.10;;
16577;SDS011;8401;52.528;13.340;2023-08-24T06:50:32;3.83;;;3.17;;
16577;SDS011;8401;52.528;13.340;2023-08-24T06:52:59;3.67;;;3.22;;
16577;SDS011;8401;52.528;13.340;2023-08-24T06:55:25;3.55;;;2.83;;
16577;SDS011;8401;52.528;13.340;2023-08-24T06:57:52;5.95;;;2.85;;
16577;SDS011;8401;52.528;13.340;2023-08-24T07:00:18;4.93;;;2.88;;
16577;SDS011;8401;52.528;13.340;2023-08-24T07:02:45;5.75;;;2.80;;
16577;SDS011;8401;52.528;13.340;2023-08-24T07:05:11;3.60;;;3.22;;
16577;SDS011;8401;52.528;13.340;2023-08-24T07:07:37;4.90;;;3.05;;
16577;SDS011;8401;52.528;13.340;2023-08-24T07:10:03;4.78;;;2.72;;
16577;SDS011;8401;52.528;13.340;2023-08-24T07:12:29;5.25;;;2.90;;
16577;SDS011;8401;52.528;13.340;2023-08-24T07:14:55;5.15;;;3.30;;
16577;SDS011;8401;52.528;13.340;2023-08-24T07:17:21;3.45;;;2.88;;
16577;SDS011;8401;52.528;13.340;2023-08-24T07:19:47;4.32;;;3.22;;
16577;SDS011;8401;52.528;13.340;2023-08-24T07:22:13;3.33;;;3.03;;
16577;SDS011;8401;52.528;13.340;2023-08-24T07:24:39;6.88;;;3.15;;
16577;SDS011;8401;52.528;13.340;2023-08-24T07:27:04;5.55;;;2.90;;
16577;SDS011;8401;52.528;13.340;2023-08-24T07:29:30;6.57;;;3.15;;
16577;SDS011;8401;52.528;13.340;2023-08-24T07:31:56;3.80;;;2.70;;
16577;SDS011;8401;52.528;13.340;2023-08-24T07:34:22;4.97;;;2.95;;
16577;SDS011;8401;52.528;13.340;2023-08-24T07:36:48;5.15;;;3.03;;
16577;SDS011;8401;52.528;13.340;2023-08-24T07:39:14;5.88;;;3.90;;
16577;SDS011;8401;52.528;13.340;2023-08-24T07:41:41;3.47;;;2.80;;
16577;SDS011;8401;52.528;13.340;2023-08-24T07:44:07;4.10;;;3.10;;
16577;SDS011;8401;52.528;13.340;2023-08-24T07:46:33;5.18;;;3.17;;
16577;SDS011;8401;52.528;13.340;2023-08-24T07:48:58;3.20;;;2.47;;
16577;SDS011;8401;52.528;13.340;2023-08-24T07:51:24;3.42;;;2.42;;
16577;SDS011;8401;52.528;13.340;2023-08-24T07:53:50;4.20;;;2.50;;
16577;SDS011;8401;52.528;13.340;2023-08-24T07:56:17;3.03;;;2.67;;
16577;SDS011;8401;52.528;13.340;2023-08-24T07:58:43;2.83;;;2.60;;
16577;SDS011;8401;52.528;13.340;2023-08-24T08:01:10;3.53;;;2.47;;
16577;SDS011;8401;52.528;13.340;2023-08-24T08:03:36;3.95;;;2.60;;
16577;SDS011;8401;52.528;13.340;2023-08-24T08:06:02;3.85;;;2.90;;
16577;SDS011;8401;52.528;13.340;2023-08-24T08:08:28;6.00;;;3.47;;
16577;SDS011;8401;52.528;13.340;2023-08-24T08:10:58;3.13;;;2.42;;
16577;SDS011;8401;52.528;13.340;2023-08-24T08:13:25;4.45;;;2.60;;
16577;SDS011;8401;52.528;13.340;2023-08-24T08:15:51;5.13;;;2.70;;
16577;SDS011;8401;52.528;13.340;2023-08-24T08:18:17;3.63;;;2.35;;
16577;SDS011;8401;52.528;13.340;2023-08-24T08:20:42;7.47;;;2.70;;
16577;SDS011;8401;52.528;13.340;2023-08-24T08:23:08;5.38;;;2.50;;
16577;SDS011;8401;52.528;13.340;2023-08-24T08:25:34;3.45;;;2.38;;
16577;SDS011;8401;52.528;13.340;2023-08-24T08:27:59;5.07;;;3.65;;
16577;SDS011;8401;52.528;13.340;2023-08-24T08:30:25;4.38;;;2.95;;
16577;SDS011;8401;52.528;13.340;2023-08-24T08:32:50;4.43;;;2.95;;
16577;SDS011;8401;52.528;13.340;2023-08-24T08:35:17;5.22;;;2.45;;
16577;SDS011;8401;52.528;13.340;2023-08-24T08:37:44;3.63;;;2.55;;
16577;SDS011;8401;52.528;13.340;2023-08-24T08:40:10;4.82;;;2.42;;
16577;SDS011;8401;52.528;13.340;2023-08-24T08:42:36;2.22;;;2.03;;
16577;SDS011;8401;52.528;13.340;2023-08-24T08:45:02;3.30;;;2.17;;
16577;SDS011;8401;52.528;13.340;2023-08-24T08:47:32;3.63;;;2.28;;
16577;SDS011;8401;52.528;13.340;2023-08-24T08:49:58;3.63;;;2.30;;
16577;SDS011;8401;52.528;13.340;2023-08-24T08:52:28;5.43;;;2.33;;
16577;SDS011;8401;52.528;13.340;2023-08-24T08:54:53;5.43;;;2.67;;
16577;SDS011;8401;52.528;13.340;2023-08-24T08:57:19;6.18;;;2.88;;
16577;SDS011;8401;52.528;13.340;2023-08-24T08:59:48;3.40;;;2.60;;
16577;SDS011;8401;52.528;13.340;2023-08-24T09:02:16;4.43;;;3.10;;
16577;SDS011;8401;52.528;13.340;2023-08-24T09:04:42;3.38;;;3.08;;
16577;SDS011;8401;52.528;13.340;2023-08-24T09:07:10;4.38;;;2.60;;
16577;SDS011;8401;52.528;13.340;2023-08-24T09:09:40;5.97;;;2.50;;
16577;SDS011;8401;52.528;13.340;2023-08-24T09:12:06;9.20;;;3.40;;
16577;SDS011;8401;52.528;13.340;2023-08-24T09:14:32;6.15;;;3.22;;
16577;SDS011;8401;52.528;13.340;2023-08-24T09:16:59;4.38;;;2.50;;
16577;SDS011;8401;52.528;13.340;2023-08-24T09:19:28;4.15;;;2.60;;
16577;SDS011;8401;52.528;13.340;2023-08-24T09:21:58;5.45;;;2.33;;
16577;SDS011;8401;52.528;13.340;2023-08-24T09:24:31;4.70;;;2.72;;
16577;SDS011;8401;52.528;13.340;2023-08-24T09:26:58;3.05;;;1.92;;
16577;SDS011;8401;52.528;13.340;2023-08-24T09:29:25;7.85;;;2.92;;
16577;SDS011;8401;52.528;13.340;2023-08-24T09:31:51;4.72;;;2.30;;
16577;SDS011;8401;52.528;13.340;2023-08-24T09:34:20;2.35;;;2.13;;
16577;SDS011;8401;52.528;13.340;2023-08-24T09:36:51;3.50;;;2.28;;
16577;SDS011;8401;52.528;13.340;2023-08-24T09:39:17;6.05;;;2.40;;
16577;SDS011;8401;52.528;13.340;2023-08-24T09:41:45;6.43;;;2.60;;
16577;SDS011;8401;52.528;13.340;2023-08-24T09:44:12;2.67;;;2.47;;
16577;SDS011;8401;52.528;13.340;2023-08-24T09:46:38;6.50;;;3.95;;
16577;SDS011;8401;52.528;13.340;2023-08-24T09:49:06;4.38;;;2.50;;
16577;SDS011;8401;52.528;13.340;2023-08-24T09:51:35;4.68;;;2.75;;
16577;SDS011;8401;52.528;13.340;2023-08-24T09:54:05;4.75;;;2.70;;
16577;SDS011;8401;52.528;13.340;2023-08-24T09:56:35;4.10;;;2.50;;
16577;SDS011;8401;52.528;13.340;2023-08-24T09:59:14;5.22;;;2.40;;
16577;SDS011;8401;52.528;13.340;2023-08-24T10:01:47;5.55;;;2.65;;
16577;SDS011;8401;52.528;13.340;2023-08-24T10:04:14;2.92;;;2.20;;
16577;SDS011;8401;52.528;13.340;2023-08-24T10:06:49;4.85;;;2.50;;
16577;SDS011;8401;52.528;13.340;2023-08-24T10:09:27;4.80;;;2.30;;
16577;SDS011;8401;52.528;13.340;2023-08-24T10:11:58;4.15;;;2.22;;
16577;SDS011;8401;52.528;13.340;2023-08-24T10:14:28;5.40;;;2.58;;
16577;SDS011;8401;52.528;13.340;2023-08-24T10:17:03;4.80;;;3.03;;
16577;SDS011;8401;52.528;13.340;2023-08-24T10:19:30;3.72;;;2.38;;
16577;SDS011;8401;52.528;13.340;2023-08-24T10:21:57;4.30;;;2.25;;
16577;SDS011;8401;52.528;13.340;2023-08-24T10:24:25;2.72;;;2.47;;
16577;SDS011;8401;52.528;13.340;2023-08-24T10:26:51;3.35;;;2.55;;
16577;SDS011;8401;52.528;13.340;2023-08-24T10:29:19;2.83;;;2.28;;
16577;SDS011;8401;52.528;13.340;2023-08-24T10:31:46;3.38;;;2.20;;
16577;SDS011;8401;52.528;13.340;2023-08-24T10:34:13;5.25;;;2.50;;
16577;SDS011;8401;52.528;13.340;2023-08-24T10:36:39;4.32;;;2.50;;
16577;SDS011;8401;52.528;13.340;2023-08-24T10:39:05;3.00;;;2.28;;
16577;SDS011;8401;52.528;13.340;2023-08-24T10:44:36;4.85;;;2.85;;
16577;SDS011;8401;52.528;13.340;2023-08-24T10:49:38;4.72;;;2.65;;
16577;SDS011;8401;52.528;13.340;2023-08-24T10:52:23;3.80;;;2.45;;
16577;SDS011;8401;52.528;13.340;2023-08-24T10:54:51;4.18;;;2.67;;
16577;SDS011;8401;52.528;13.340;2023-08-24T10:57:18;4.88;;;2.58;;
16577;SDS011;8401;52.528;13.340;2023-08-24T11:02:41;5.38;;;2.60;;
16577;SDS011;8401;52.528;13.340;2023-08-24T11:05:24;2.88;;;2.58;;
16577;SDS011;8401;52.528;13.340;2023-08-24T11:08:04;3.67;;;2.50;;
16577;SDS011;8401;52.528;13.340;2023-08-24T11:13:17;2.88;;;2.55;;
16577;SDS011;8401;52.528;13.340;2023-08-24T11:15:45;3.45;;;2.65;;
16577;SDS011;8401;52.528;13.340;2023-08-24T11:18:12;5.93;;;3.20;;
16577;SDS011;8401;52.528;13.340;2023-08-24T11:20:48;3.97;;;2.70;;
16577;SDS011;8401;52.528;13.340;2023-08-24T11:23:15;4.35;;;2.92;;
16577;SDS011;8401;52.528;13.340;2023-08-24T11:25:42;4.75;;;2.85;;
16577;SDS011;8401;52.528;13.340;2023-08-24T11:28:07;4.90;;;2.70;;
16577;SDS011;8401;52.528;13.340;2023-08-24T11:30:54;4.10;;;3.05;;
16577;SDS011;8401;52.528;13.340;2023-08-24T11:33:31;4.07;;;3.20;;
16577;SDS011;8401;52.528;13.340;2023-08-24T11:35:58;4.38;;;3.20;;
16577;SDS011;8401;52.528;13.340;2023-08-24T11:38:25;4.20;;;3.58;;
16577;SDS011;8401;52.528;13.340;2023-08-24T11:41:00;4.57;;;3.58;;
16577;SDS011;8401;52.528;13.340;2023-08-24T11:43:25;4.07;;;3.17;;
16577;SDS011;8401;52.528;13.340;2023-08-24T11:45:53;4.90;;;3.58;;
16577;SDS011;8401;52.528;13.340;2023-08-24T11:48:23;5.32;;;3.42;;
16577;SDS011;8401;52.528;13.340;2023-08-24T11:50:50;4.40;;;3.50;;
16577;SDS011;8401;52.528;13.340;2023-08-24T11:53:16;4.30;;;3.20;;
16577;SDS011;8401;52.528;13.340;2023-08-24T11:55:43;5.47;;;3.15;;
16577;SDS011;8401;52.528;13.340;2023-08-24T11:58:18;4.05;;;3.20;;
16577;SDS011;8401;52.528;13.340;2023-08-24T12:00:44;5.60;;;3.17;;
16577;SDS011;8401;52.528;13.340;2023-08-24T12:03:11;4.70;;;3.10;;
16577;SDS011;8401;52.528;13.340;2023-08-24T12:05:37;5.82;;;3.83;;
16577;SDS011;8401;52.528;13.340;2023-08-24T12:08:03;6.47;;;3.58;;
16577;SDS011;8401;52.528;13.340;2023-08-24T12:10:29;5.20;;;3.55;;
16577;SDS011;8401;52.528;13.340;2023-08-24T12:13:05;4.63;;;3.47;;
16577;SDS011;8401;52.528;13.340;2023-08-24T12:15:33;5.35;;;3.65;;
16577;SDS011;8401;52.528;13.340;2023-08-24T12:18:10;4.30;;;3.17;;
16577;SDS011;8401;52.528;13.340;2023-08-24T12:20:40;3.40;;;2.90;;
16577;SDS011;8401;52.528;13.340;2023-08-24T12:23:06;6.40;;;3.45;;
16577;SDS011;8401;52.528;13.340;2023-08-24T12:25:42;5.25;;;3.42;;
16577;SDS011;8401;52.528;13.340;2023-08-24T12:28:12;3.92;;;3.30;;
16577;SDS011;8401;52.528;13.340;2023-08-24T12:30:43;4.72;;;3.33;;
16577;SDS011;8401;52.528;13.340;2023-08-24T12:33:25;6.13;;;3.60;;
16577;SDS011;8401;52.528;13.340;2023-08-24T12:35:53;4.78;;;3.30;;
16577;SDS011;8401;52.528;13.340;2023-08-24T12:38:20;3.63;;;3.20;;
16577;SDS011;8401;52.528;13.340;2023-08-24T12:40:46;4.70;;;3.45;;
16577;SDS011;8401;52.528;13.340;2023-08-24T12:43:12;3.47;;;2.83;;
16577;SDS011;8401;52.528;13.340;2023-08-24T12:45:38;3.13;;;2.80;;
16577;SDS011;8401;52.528;13.340;2023-08-24T12:48:05;3.67;;;3.03;;
16577;SDS011;8401;52.528;13.340;2023-08-24T12:50:32;5.45;;;3.17;;
16577;SDS011;8401;52.528;13.340;2023-08-24T12:52:58;4.90;;;3.05;;
16577;SDS011;8401;52.528;13.340;2023-08-24T12:55:27;3.88;;;3.33;;
16577;SDS011;8401;52.528;13.340;2023-08-24T12:57:53;4.30;;;2.97;;
16577;SDS011;8401;52.528;13.340;2023-08-24T13:00:19;3.50;;;3.20;;
16577;SDS011;8401;52.528;13.340;2023-08-24T13:02:45;3.00;;;2.70;;
16577;SDS011;8401;52.528;13.340;2023-08-24T13:05:11;4.80;;;2.95;;
16577;SDS011;8401;52.528;13.340;2023-08-24T13:07:37;4.00;;;3.15;;
16577;SDS011;8401;52.528;13.340;2023-08-24T13:10:03;4.43;;;3.20;;
16577;SDS011;8401;52.528;13.340;2023-08-24T13:12:30;3.88;;;3.17;;
16577;SDS011;8401;52.528;13.340;2023-08-24T13:14:55;5.30;;;2.80;;
16577;SDS011;8401;52.528;13.340;2023-08-24T13:17:21;3.03;;;2.60;;
16577;SDS011;8401;52.528;13.340;2023-08-24T13:19:46;5.40;;;3.20;;
16577;SDS011;8401;52.528;13.340;2023-08-24T13:22:14;3.47;;;2.80;;
16577;SDS011;8401;52.528;13.340;2023-08-24T13:24:40;3.88;;;3.10;;
16577;SDS011;8401;52.528;13.340;2023-08-24T13:27:08;7.82;;;2.88;;
16577;SDS011;8401;52.528;13.340;2023-08-24T13:29:38;5.65;;;3.08;;
16577;SDS011;8401;52.528;13.340;2023-08-24T13:32:05;3.83;;;2.97;;
16577;SDS011;8401;52.528;13.340;2023-08-24T13:34:31;4.03;;;2.80;;
16577;SDS011;8401;52.528;13.340;2023-08-24T13:36:57;3.83;;;2.95;;
16577;SDS011;8401;52.528;13.340;2023-08-24T13:39:23;4.32;;;3.05;;
16577;SDS011;8401;52.528;13.340;2023-08-24T13:42:01;5.53;;;3.05;;
16577;SDS011;8401;52.528;13.340;2023-08-24T13:44:27;6.85;;;3.00;;
16577;SDS011;8401;52.528;13.340;2023-08-24T13:46:52;4.07;;;2.92;;
16577;SDS011;8401;52.528;13.340;2023-08-24T13:49:18;4.82;;;3.30;;
16577;SDS011;8401;52.528;13.340;2023-08-24T13:51:44;5.45;;;3.03;;
16577;SDS011;8401;52.528;13.340;2023-08-24T13:54:16;3.17;;;2.83;;
16577;SDS011;8401;52.528;13.340;2023-08-24T13:56:46;5.38;;;3.20;;
16577;SDS011;8401;52.528;13.340;2023-08-24T13:59:14;4.65;;;3.30;;
16577;SDS011;8401;52.528;13.340;2023-08-24T14:01:43;6.13;;;4.13;;
16577;SDS011;8401;52.528;13.340;2023-08-24T14:04:08;5.47;;;3.10;;
16577;SDS011;8401;52.528;13.340;2023-08-24T14:06:34;5.18;;;3.13;;
16577;SDS011;8401;52.528;13.340;2023-08-24T14:09:01;3.00;;;2.80;;
16577;SDS011;8401;52.528;13.340;2023-08-24T14:11:28;3.92;;;2.92;;
16577;SDS011;8401;52.528;13.340;2023-08-24T14:13:54;3.85;;;2.85;;
16577;SDS011;8401;52.528;13.340;2023-08-24T14:16:20;3.78;;;2.70;;
16577;SDS011;8401;52.528;13.340;2023-08-24T14:18:46;4.72;;;3.63;;
16577;SDS011;8401;52.528;13.340;2023-08-24T14:21:12;4.20;;;2.78;;
16577;SDS011;8401;52.528;13.340;2023-08-24T14:23:38;3.03;;;2.72;;
16577;SDS011;8401;52.528;13.340;2023-08-24T14:26:05;4.00;;;2.90;;
16577;SDS011;8401;52.528;13.340;2023-08-24T14:28:52;4.18;;;3.33;;
16577;SDS011;8401;52.528;13.340;2023-08-24T14:31:28;3.35;;;2.55;;
16577;SDS011;8401;52.528;13.340;2023-08-24T14:33:54;6.22;;;3.20;;
16577;SDS011;8401;52.528;13.340;2023-08-24T14:36:20;5.05;;;2.63;;
16577;SDS011;8401;52.528;13.340;2023-08-24T14:38:46;4.13;;;2.55;;
16577;SDS011;8401;52.528;13.340;2023-08-24T14:41:13;2.70;;;2.50;;
16577;SDS011;8401;52.528;13.340;2023-08-24T14:43:40;4.45;;;2.90;;
16577;SDS011;8401;52.528;13.340;2023-08-24T14:46:06;3.97;;;2.80;;
16577;SDS011;8401;52.528;13.340;2023-08-24T14:48:32;4.97;;;2.40;;
16577;SDS011;8401;52.528;13.340;2023-08-24T14:50:58;3.22;;;2.90;;
16577;SDS011;8401;52.528;13.340;2023-08-24T14:53:24;3.42;;;2.50;;
16577;SDS011;8401;52.528;13.340;2023-08-24T14:55:52;3.13;;;2.55;;
16577;SDS011;8401;52.528;13.340;2023-08-24T14:58:18;2.95;;;2.30;;
16577;SDS011;8401;52.528;13.340;2023-08-24T15:00:45;5.20;;;2.63;;
16577;SDS011;8401;52.528;13.340;2023-08-24T15:03:12;3.63;;;2.55;;
16577;SDS011;8401;52.528;13.340;2023-08-24T15:05:40;2.92;;;2.60;;
16577;SDS011;8401;52.528;13.340;2023-08-24T15:08:07;4.63;;;2.63;;
16577;SDS011;8401;52.528;13.340;2023-08-24T15:10:33;4.85;;;2.90;;
16577;SDS011;8401;52.528;13.340;2023-08-24T15:12:58;3.58;;;2.88;;